Rockwood, Maine
Current Conditions -  °F | °C
As of 1:53 AM on Thursday 23 Oct 2014 (Local Time) from KMLT Reporting Station
Light Rain Light Rain  
Wind Chill: 38°   Ceiling: 700
Heat Index: 44°   Visibility: 2.5mi
Dew Point: 42°   Wind: 12mph
Humidity: 93%   Direction: 40°NE
Pressure: 30.15"   Gusts: 20mph
Location:  45.68°N, 69.74°W
Report Text: KMLT 230553Z AUTO 04010G17KT 2 1/2SM -RA BR BKN007 BKN013 OVC017 07/06 A3015 RMK AO2 RAE0454B34 SLP218 P0001 60007 T00670056 10072 20061 58022
Loading
Personal Weather Stations






























Interactive Weather Map New forecast layout! Learn more

10-Day Weather Forecast

Advertisements
Track Severe Weather on mobile